Time;durP1;ratioP1;P1;durP2;ratioP2;P2;SDS_P1;SDS_P2;PMS_P1;PMS_P2;Temp;Humidity;BMP_temperature;BMP_pressure;BME280_temperature;BME280_humidity;BME280_pressure;Samples;Min_cycle;Max_cycle;Signal;HPM_P1;HPM_P2
2022/08/14 00:02:22;;;;;;;6.32;5.82;;;20.80;99.90;;;;;;5055052;28;20281;-86
2022/08/14 00:04:53;;;;;;;17.92;6.03;;;20.80;99.90;;;;;;5054593;28;20213;-86
2022/08/14 00:07:22;;;;;;;5.55;5.05;;;20.80;99.90;;;;;;5054499;28;20218;-86
2022/08/14 00:09:52;;;;;;;5.68;5.07;;;20.80;99.90;;;;;;5054320;28;20206;-86
2022/08/14 00:12:43;;;;;;;5.88;5.40;;;20.80;99.90;;;;;;5054726;28;20201;-86
2022/08/14 00:15:27;;;;;;;5.97;5.50;;;20.80;99.90;;;;;;5054745;28;20206;-86
2022/08/14 00:18:05;;;;;;;5.60;5.20;;;20.70;99.90;;;;;;5054423;28;20285;-86
2022/08/14 00:20:37;;;;;;;6.13;5.53;;;20.70;99.90;;;;;;5053836;28;20236;-86
2022/08/14 00:23:12;;;;;;;6.28;5.32;;;20.70;99.90;;;;;;5054476;28;20240;-85
2022/08/14 00:25:48;;;;;;;5.53;5.03;;;20.60;99.90;;;;;;5054455;28;20219;-86
2022/08/14 00:28:34;;;;;;;5.90;5.35;;;20.60;99.90;;;;;;5054565;28;20198;-86
2022/08/14 00:31:05;;;;;;;6.28;5.70;;;20.60;99.90;;;;;;5054213;28;20238;-86
2022/08/14 00:33:35;;;;;;;9.73;4.93;;;20.60;99.90;;;;;;5054469;28;20217;-88
2022/08/14 00:36:20;;;;;;;6.88;6.15;;;20.60;99.90;;;;;;5053911;28;20208;-88
2022/08/14 00:39:11;;;;;;;5.53;5.13;;;20.60;99.90;;;;;;5053785;28;20206;-87
2022/08/14 00:41:42;;;;;;;6.45;5.85;;;20.70;99.90;;;;;;5054310;28;20384;-88
2022/08/14 00:44:10;;;;;;;5.93;5.43;;;20.70;99.90;;;;;;5054261;28;20257;-87
2022/08/14 00:46:39;;;;;;;5.30;4.90;;;20.70;99.90;;;;;;5053716;28;20314;-87
2022/08/14 00:49:10;;;;;;;6.68;6.07;;;20.70;99.90;;;;;;5053423;28;20206;-87
2022/08/14 00:51:42;;;;;;;6.88;5.40;;;20.70;99.90;;;;;;5054110;28;20225;-87
2022/08/14 00:54:12;;;;;;;5.22;4.80;;;20.70;99.90;;;;;;5053748;28;20206;-87
2022/08/14 00:56:52;;;;;;;5.93;4.63;;;20.70;99.90;;;;;;5053801;28;20202;-87
2022/08/14 00:59:24;;;;;;;6.03;5.43;;;20.80;99.90;;;;;;5053259;28;20223;-87
2022/08/14 01:01:56;;;;;;;5.45;5.05;;;20.80;99.90;;;;;;5053635;28;20230;-87
2022/08/14 01:04:27;;;;;;;5.70;5.20;;;20.80;99.90;;;;;;5053675;28;20283;-87
2022/08/14 01:07:19;;;;;;;5.68;5.18;;;20.90;99.90;;;;;;5053235;28;20229;-87
2022/08/14 01:09:49;;;;;;;9.43;4.88;;;21.00;99.90;;;;;;5053775;28;20206;-87
2022/08/14 01:12:21;;;;;;;5.28;4.88;;;21.00;99.90;;;;;;5053611;28;20300;-87
2022/08/14 01:14:57;;;;;;;5.43;4.93;;;21.10;99.90;;;;;;5053306;28;20233;-87
2022/08/14 01:21:02;;;;;;;6.30;5.75;;;21.10;99.90;;;;;;5053358;28;20292;-87
2022/08/14 01:23:09;;;;;;;5.32;4.93;;;21.10;99.90;;;;;;5053408;28;20212;-87
2022/08/14 01:25:48;;;;;;;5.05;4.60;;;21.10;99.90;;;;;;5058471;28;20198;-87
2022/08/14 01:28:19;;;;;;;5.75;5.03;;;21.10;99.90;;;;;;5074942;28;20209;-87
2022/08/14 01:31:11;;;;;;;5.45;4.95;;;21.10;99.90;;;;;;5062483;28;20244;-87
2022/08/14 01:33:45;;;;;;;5.88;5.10;;;21.10;99.90;;;;;;5053348;28;20198;-87
2022/08/14 01:36:36;;;;;;;5.47;4.95;;;21.10;99.90;;;;;;5053401;28;20209;-87
2022/08/14 01:39:12;;;;;;;4.85;4.45;;;21.10;99.90;;;;;;5052960;28;20197;-87
2022/08/14 01:41:42;;;;;;;6.03;5.35;;;21.10;99.90;;;;;;5053081;28;20225;-87
2022/08/14 01:44:14;;;;;;;5.72;5.22;;;21.10;99.90;;;;;;5053432;28;20227;-87
2022/08/14 01:47:06;;;;;;;5.63;4.75;;;21.10;99.90;;;;;;5053102;28;20230;-87
2022/08/14 01:49:38;;;;;;;7.38;4.75;;;21.10;99.90;;;;;;5052954;28;20205;-87
2022/08/14 01:52:26;;;;;;;4.55;4.18;;;21.00;99.90;;;;;;5053621;28;20261;-87
2022/08/14 01:55:16;;;;;;;5.05;4.60;;;21.00;99.90;;;;;;5053245;28;20201;-87
2022/08/14 01:57:45;;;;;;;6.70;6.05;;;21.00;99.90;;;;;;5052791;28;20233;-87
2022/08/14 02:00:29;;;;;;;5.95;5.15;;;20.90;99.90;;;;;;5052584;28;20253;-87
2022/08/14 02:03:03;;;;;;;5.13;4.72;;;21.00;99.90;;;;;;5052767;28;20210;-88
2022/08/14 02:05:34;;;;;;;6.05;5.32;;;21.00;99.90;;;;;;5052662;28;20237;-86
2022/08/14 02:08:06;;;;;;;6.32;5.72;;;21.00;99.90;;;;;;5052506;28;20226;-86
2022/08/14 02:10:38;;;;;;;5.30;4.82;;;21.00;99.90;;;;;;5051868;28;20226;-86
2022/08/14 02:13:17;;;;;;;4.85;4.45;;;21.00;99.90;;;;;;5052754;28;20204;-85
2022/08/14 02:15:46;;;;;;;4.75;4.38;;;21.00;99.90;;;;;;5052461;28;20202;-85
2022/08/14 02:18:15;;;;;;;10.15;5.05;;;21.00;99.90;;;;;;5052576;28;20198;-86
2022/08/14 02:20:46;;;;;;;5.25;4.75;;;21.00;99.90;;;;;;5052212;28;20226;-86
2022/08/14 02:23:15;;;;;;;5.53;4.82;;;21.00;99.90;;;;;;5052776;28;20213;-86
2022/08/14 02:26:00;;;;;;;4.57;4.18;;;20.90;99.90;;;;;;5052562;28;20292;-86
2022/08/14 02:28:51;;;;;;;4.90;4.50;;;20.90;99.90;;;;;;5052198;28;20224;-86
2022/08/14 02:31:31;;;;;;;5.05;4.65;;;20.90;99.90;;;;;;5052475;28;20233;-86
2022/08/14 02:34:13;;;;;;;5.78;4.82;;;20.90;99.90;;;;;;5052605;28;20213;-86
2022/08/14 02:36:52;;;;;;;5.20;4.80;;;20.90;99.90;;;;;;5052283;28;20213;-85
2022/08/14 02:39:35;;;;;;;5.65;5.15;;;20.90;99.90;;;;;;5052168;28;20210;-86
2022/08/14 02:42:08;;;;;;;4.75;4.35;;;20.90;99.90;;;;;;5052196;28;20238;-86
2022/08/14 02:44:42;;;;;;;10.77;5.22;;;20.90;99.90;;;;;;5052513;28;20202;-86
2022/08/14 02:47:18;;;;;;;5.10;4.72;;;20.90;99.90;;;;;;5051896;28;20213;-86
2022/08/14 02:49:48;;;;;;;5.20;4.65;;;20.90;99.90;;;;;;5052201;28;20264;-86
2022/08/14 02:52:22;;;;;;;4.85;4.30;;;20.90;99.90;;;;;;5052210;28;20226;-85
2022/08/14 02:55:11;;;;;;;5.15;4.72;;;20.90;99.90;;;;;;5052040;28;20212;-86
2022/08/14 02:57:50;;;;;;;5.93;5.32;;;20.90;99.90;;;;;;5052279;28;20239;-86
2022/08/14 03:00:32;;;;;;;5.00;4.70;;;20.90;99.90;;;;;;5052104;28;20232;-86
2022/08/14 03:03:01;;;;;;;4.60;4.30;;;20.90;99.90;;;;;;5052176;28;20248;-86
2022/08/14 03:05:36;;;;;;;5.85;5.35;;;20.90;99.90;;;;;;5052153;28;20228;-85
2022/08/14 03:08:10;;;;;;;5.38;4.93;;;20.90;99.90;;;;;;5051682;28;20225;-86
2022/08/14 03:10:42;;;;;;;5.53;4.97;;;20.90;99.90;;;;;;5051680;28;20236;-86
2022/08/14 03:13:18;;;;;;;5.45;4.55;;;20.90;99.90;;;;;;5052217;28;20237;-86
2022/08/14 03:15:50;;;;;;;5.78;5.28;;;20.90;99.90;;;;;;5051950;28;20228;-86
2022/08/14 03:18:23;;;;;;;4.97;4.55;;;20.90;99.90;;;;;;5052105;28;20213;-86
2022/08/14 03:21:03;;;;;;;5.35;4.95;;;20.90;99.90;;;;;;5053494;28;20229;-86
2022/08/14 03:23:33;;;;;;;5.25;4.85;;;20.90;99.90;;;;;;5055343;28;20240;-86
2022/08/14 03:26:07;;;;;;;6.22;5.10;;;20.80;99.90;;;;;;5055521;28;20205;-88
2022/08/14 03:28:42;;;;;;;8.05;6.15;;;20.90;99.90;;;;;;5055254;28;20320;-85
2022/08/14 03:31:12;;;;;;;5.18;4.70;;;20.90;99.90;;;;;;5054973;28;20317;-86
2022/08/14 03:33:41;;;;;;;5.60;5.10;;;20.90;99.90;;;;;;5055678;28;20197;-87
2022/08/14 03:36:13;;;;;;;4.82;4.43;;;20.90;99.90;;;;;;5055318;28;20214;-86
2022/08/14 03:39:04;;;;;;;5.03;4.63;;;20.90;99.90;;;;;;5054594;28;20205;-86
2022/08/14 03:41:43;;;;;;;6.05;5.55;;;20.90;99.90;;;;;;5055037;28;20221;-86
2022/08/14 03:44:13;;;;;;;5.00;4.60;;;20.80;99.90;;;;;;5054929;28;20205;-86
2022/08/14 03:47:01;;;;;;;5.15;4.68;;;20.90;99.90;;;;;;5054929;28;20212;-88
2022/08/14 03:49:30;;;;;;;5.88;5.30;;;20.90;99.90;;;;;;5054638;28;20222;-86
2022/08/14 03:52:03;;;;;;;5.90;5.30;;;20.90;99.90;;;;;;5054909;28;20221;-87
2022/08/14 03:54:45;;;;;;;5.53;5.13;;;20.90;99.90;;;;;;5055112;28;20209;-86
2022/08/14 03:57:19;;;;;;;12.02;5.93;;;20.90;99.90;;;;;;5054835;28;20206;-87
2022/08/14 03:59:51;;;;;;;6.47;5.88;;;20.90;99.90;;;;;;5054634;28;20224;-86
2022/08/14 04:02:21;;;;;;;5.93;5.32;;;20.90;99.90;;;;;;5054744;28;20330;-86
2022/08/14 04:05:05;;;;;;;4.20;3.90;;;20.90;99.90;;;;;;5054864;28;20205;-86
2022/08/14 04:07:40;;;;;;;5.78;5.30;;;20.90;99.90;;;;;;5054571;28;20217;-86
2022/08/14 04:10:28;;;;;;;6.15;5.63;;;20.90;99.90;;;;;;5054938;28;20229;-87
2022/08/14 04:13:00;;;;;;;6.70;6.03;;;20.90;99.90;;;;;;5054596;28;20210;-87
2022/08/14 04:15:33;;;;;;;6.38;5.78;;;20.90;99.90;;;;;;5054846;28;20213;-86
2022/08/14 04:18:21;;;;;;;5.50;5.00;;;20.90;99.90;;;;;;5054272;28;20197;-87
2022/08/14 04:20:50;;;;;;;8.48;5.70;;;21.00;99.90;;;;;;5054638;28;20236;-86
2022/08/14 04:23:24;;;;;;;4.85;4.55;;;20.90;99.90;;;;;;5054830;28;20210;-87
2022/08/14 04:26:04;;;;;;;5.85;5.35;;;21.00;99.90;;;;;;5054275;28;20216;-86
2022/08/14 04:28:39;;;;;;;6.00;5.43;;;21.00;99.90;;;;;;5054048;28;20231;-86
2022/08/14 04:31:29;;;;;;;6.13;5.55;;;21.00;99.90;;;;;;5054150;28;20233;-86
2022/08/14 04:34:17;;;;;;;5.63;5.13;;;21.00;99.90;;;;;;5053812;28;20212;-86
2022/08/14 04:45:25;;;;;;;11.40;6.18;;;21.00;99.90;;;;;;5053807;28;20233;-87
2022/08/14 04:48:14;;;;;;;6.45;5.82;;;21.00;99.90;;;;;;5053823;28;20311;-87
2022/08/14 04:51:04;;;;;;;7.75;6.15;;;21.00;99.90;;;;;;5053956;28;20222;-87
2022/08/14 04:53:35;;;;;;;5.90;5.38;;;21.00;99.90;;;;;;5054086;28;20206;-86
2022/08/14 04:56:11;;;;;;;5.97;5.47;;;21.00;99.90;;;;;;5063270;28;20209;-86
2022/08/14 04:59:03;;;;;;;5.65;5.15;;;21.10;99.90;;;;;;5073533;28;20209;-86
2022/08/14 05:01:38;;;;;;;6.07;5.47;;;21.10;99.90;;;;;;5054739;28;20249;-86
2022/08/14 05:04:09;;;;;;;5.68;5.28;;;21.10;99.90;;;;;;5054391;28;20232;-86
2022/08/14 05:06:46;;;;;;;8.00;5.32;;;21.10;99.90;;;;;;5053745;28;20228;-86
2022/08/14 05:09:16;;;;;;;5.38;4.88;;;21.10;99.90;;;;;;5053335;28;20305;-86
2022/08/14 05:11:46;;;;;;;6.55;5.97;;;21.10;99.90;;;;;;5053536;28;20225;-86
2022/08/14 05:14:14;;;;;;;6.22;5.72;;;21.10;99.90;;;;;;5053628;28;20280;-86
2022/08/14 05:17:02;;;;;;;6.47;5.88;;;21.20;99.90;;;;;;5053551;28;20210;-86
2022/08/14 05:19:35;;;;;;;6.00;5.47;;;21.20;99.90;;;;;;5053306;28;20206;-86
2022/08/14 05:22:23;;;;;;;6.43;5.78;;;21.20;99.90;;;;;;5053203;28;20233;-87
2022/08/14 05:24:54;;;;;;;5.85;5.35;;;21.30;99.90;;;;;;5053087;28;20220;-86
2022/08/14 05:27:23;;;;;;;6.45;5.85;;;21.40;99.90;;;;;;5053228;28;20284;-87
2022/08/14 05:29:54;;;;;;;5.65;5.18;;;21.40;99.90;;;;;;5052834;28;20229;-86
2022/08/14 05:32:25;;;;;;;6.40;5.90;;;21.40;99.90;;;;;;5053443;28;20241;-86
2022/08/14 05:34:58;;;;;;;6.43;5.82;;;21.40;99.90;;;;;;5053254;28;20217;-86
2022/08/14 05:37:29;;;;;;;6.43;5.93;;;21.50;99.90;;;;;;5053286;28;20308;-86
2022/08/14 05:39:59;;;;;;;6.05;5.57;;;21.50;99.90;;;;;;5052804;28;20209;-86
2022/08/14 05:42:28;;;;;;;6.50;5.90;;;21.50;99.90;;;;;;5052934;28;20221;-85
2022/08/14 05:45:01;;;;;;;8.02;5.90;;;21.50;99.90;;;;;;5053573;28;20214;-85
2022/08/14 05:47:31;;;;;;;6.82;6.32;;;21.60;99.90;;;;;;5053025;28;20210;-86
2022/08/14 05:50:09;;;;;;;5.72;5.32;;;21.70;99.90;;;;;;5052424;28;20252;-86
2022/08/14 05:52:46;;;;;;;6.38;5.90;;;21.80;99.90;;;;;;5052661;28;20205;-88
2022/08/14 05:55:15;;;;;;;6.53;5.82;;;21.80;99.90;;;;;;5052706;28;20254;-88
2022/08/14 05:57:52;;;;;;;6.57;5.97;;;21.80;99.90;;;;;;5053095;28;20209;-87
2022/08/14 06:00:23;;;;;;;6.18;5.68;;;22.00;99.90;;;;;;5052644;28;20202;-88
2022/08/14 06:03:06;;;;;;;8.02;7.25;;;22.00;99.90;;;;;;5053134;28;20202;-86
2022/08/14 06:05:37;;;;;;;10.02;8.27;;;22.10;99.90;;;;;;5052703;28;20206;-88
2022/08/14 06:08:06;;;;;;;6.22;5.72;;;22.20;99.90;;;;;;5052858;28;20202;-86
2022/08/14 06:11:01;;;;;;;7.45;6.80;;;22.20;99.90;;;;;;5052226;28;20229;-86
2022/08/14 06:13:31;;;;;;;9.80;7.28;;;22.30;99.90;;;;;;5052798;28;20210;-86
2022/08/14 06:16:15;;;;;;;11.18;7.72;;;22.40;99.90;;;;;;5052628;28;20296;-86
2022/08/14 06:18:47;;;;;;;8.68;7.47;;;22.40;99.90;;;;;;5052331;28;20228;-86
2022/08/14 06:21:21;;;;;;;7.25;6.65;;;22.40;99.90;;;;;;5052206;28;20225;-85
2022/08/14 06:23:50;;;;;;;7.53;6.53;;;22.50;99.90;;;;;;5052551;28;20281;-86
2022/08/14 06:26:19;;;;;;;7.13;6.53;;;22.40;99.90;;;;;;5052387;28;20213;-86
2022/08/14 06:28:49;;;;;;;6.63;6.13;;;22.40;99.90;;;;;;5052581;28;20202;-86
2022/08/14 06:31:19;;;;;;;6.90;6.40;;;22.40;99.90;;;;;;5051913;28;20307;-86
2022/08/14 06:33:48;;;;;;;7.43;6.65;;;22.40;99.90;;;;;;5052264;28;20205;-87
2022/08/14 06:36:38;;;;;;;7.55;6.85;;;22.40;99.90;;;;;;5052450;28;20213;-86
2022/08/14 06:39:06;;;;;;;6.43;5.70;;;22.30;99.90;;;;;;5052133;28;20206;-86
2022/08/14 06:41:38;;;;;;;7.43;6.57;;;22.20;99.90;;;;;;5052477;28;20221;-86
2022/08/14 06:44:26;;;;;;;8.13;7.32;;;22.20;99.90;;;;;;5052571;28;20271;-86
2022/08/14 06:47:01;;;;;;;6.68;6.18;;;22.20;99.90;;;;;;5052137;28;20203;-87
2022/08/14 06:49:30;;;;;;;7.38;6.65;;;22.10;99.90;;;;;;5051996;28;20217;-87
2022/08/14 06:52:14;;;;;;;6.78;6.05;;;22.10;99.90;;;;;;5052265;28;20229;-86
2022/08/14 06:54:44;;;;;;;7.05;6.35;;;22.10;99.90;;;;;;5052401;28;20213;-87
2022/08/14 06:57:12;;;;;;;7.60;6.90;;;22.10;99.90;;;;;;5055403;28;20216;-87
2022/08/14 06:59:41;;;;;;;7.30;6.70;;;22.10;99.90;;;;;;5056373;28;20213;-87
2022/08/14 07:07:52;;;;;;;7.90;7.20;;;22.20;99.90;;;;;;5055919;28;20209;-87
2022/08/14 07:10:21;;;;;;;6.95;6.35;;;22.20;99.90;;;;;;5055612;28;20237;-87
2022/08/14 07:12:51;;;;;;;7.13;6.43;;;22.20;99.90;;;;;;5055744;28;20209;-86
2022/08/14 07:15:31;;;;;;;7.60;6.90;;;22.20;99.90;;;;;;5055378;28;20206;-86
2022/08/14 07:18:02;;;;;;;6.57;6.07;;;22.20;99.90;;;;;;5055661;28;20213;-87
2022/08/14 07:20:32;;;;;;;6.93;6.32;;;22.20;99.90;;;;;;5055747;28;20237;-86
2022/08/14 07:23:03;;;;;;;7.10;6.40;;;22.30;99.90;;;;;;5055844;28;20215;-87
2022/08/14 07:25:36;;;;;;;7.28;6.68;;;22.30;99.90;;;;;;5055805;28;20283;-87
2022/08/14 07:28:10;;;;;;;6.65;6.05;;;22.40;99.90;;;;;;5055817;28;20214;-87
2022/08/14 07:30:48;;;;;;;8.07;7.25;;;22.40;99.90;;;;;;5055430;28;20228;-87
2022/08/14 07:33:19;;;;;;;6.38;5.80;;;22.60;99.90;;;;;;5055934;28;20205;-87
2022/08/14 07:35:59;;;;;;;7.13;6.45;;;22.70;99.90;;;;;;5057568;28;20201;-86
2022/08/14 07:38:29;;;;;;;6.95;6.45;;;22.80;99.90;;;;;;5055678;28;20284;-86
2022/08/14 07:41:05;;;;;;;6.75;6.05;;;22.90;99.90;;;;;;5055736;28;20275;-87
2022/08/14 07:43:44;;;;;;;6.40;5.88;;;22.80;99.90;;;;;;5055896;28;20215;-87
2022/08/14 07:46:24;;;;;;;6.45;5.85;;;22.90;99.90;;;;;;5056292;28;20210;-87
2022/08/14 07:48:56;;;;;;;6.90;6.30;;;22.90;99.90;;;;;;5055499;28;20218;-86
2022/08/14 07:51:25;;;;;;;5.57;5.07;;;22.80;99.90;;;;;;5056154;28;20229;-87
2022/08/14 07:54:06;;;;;;;7.22;6.45;;;22.90;99.90;;;;;;5056112;28;20280;-87
2022/08/14 07:56:39;;;;;;;9.57;6.70;;;23.00;99.90;;;;;;5055609;28;20288;-87
2022/08/14 07:59:16;;;;;;;6.80;6.13;;;23.00;99.90;;;;;;5054893;28;20205;-85
2022/08/14 08:01:46;;;;;;;6.30;5.80;;;23.20;99.90;;;;;;5055278;28;20226;-86
2022/08/14 08:04:24;;;;;;;7.47;6.38;;;23.20;99.90;;;;;;5054972;28;20197;-85
2022/08/14 08:06:54;;;;;;;5.63;5.22;;;23.20;99.90;;;;;;5054081;28;20236;-85
2022/08/14 08:09:27;;;;;;;7.07;6.43;;;23.20;99.90;;;;;;5053871;28;20296;-85
2022/08/14 08:12:01;;;;;;;6.20;5.68;;;23.20;99.90;;;;;;5054252;28;20251;-85
2022/08/14 08:14:33;;;;;;;7.30;5.70;;;23.20;99.90;;;;;;5054700;28;20431;-85
2022/08/14 08:17:23;;;;;;;5.60;5.20;;;23.00;99.90;;;;;;5054761;28;20206;-86
2022/08/14 08:19:52;;;;;;;6.13;5.72;;;23.00;99.90;;;;;;5054305;28;20240;-85
2022/08/14 08:22:21;;;;;;;6.53;6.03;;;23.10;99.90;;;;;;5054737;28;20226;-86
2022/08/14 08:24:55;;;;;;;6.60;6.00;;;23.20;99.90;;;;;;5054483;28;20201;-86
2022/08/14 08:27:25;;;;;;;6.15;5.65;;;23.20;99.90;;;;;;5056823;28;20209;-85
2022/08/14 08:30:06;;;;;;;5.20;4.80;;;23.10;99.90;;;;;;5070143;28;20285;-85
2022/08/14 08:32:40;;;;;;;5.68;5.28;;;23.00;99.90;;;;;;5062877;28;20225;-85
2022/08/14 08:35:19;;;;;;;6.75;6.15;;;22.90;99.90;;;;;;5054421;28;20217;-85
2022/08/14 08:37:47;;;;;;;6.90;6.25;;;22.90;99.90;;;;;;5054300;28;20220;-86
2022/08/14 08:40:34;;;;;;;5.97;5.45;;;22.90;99.90;;;;;;5054093;28;20234;-86
2022/08/14 08:43:16;;;;;;;5.90;5.18;;;22.90;99.90;;;;;;5054605;28;20209;-86
2022/08/14 08:45:53;;;;;;;6.55;5.97;;;22.80;99.90;;;;;;5054394;28;20260;-86
2022/08/14 08:48:21;;;;;;;5.68;5.28;;;22.80;99.90;;;;;;5053509;28;20205;-86
2022/08/14 08:51:04;;;;;;;6.78;6.18;;;22.90;99.90;;;;;;5053717;28;20221;-86
2022/08/14 08:53:34;;;;;;;5.75;5.25;;;22.90;99.90;;;;;;5054088;28;20205;-86
2022/08/14 08:56:04;;;;;;;5.35;4.90;;;22.80;99.90;;;;;;5054188;28;20201;-86
2022/08/14 08:58:32;;;;;;;5.20;4.82;;;22.90;99.90;;;;;;5054125;28;20198;-86
2022/08/14 09:01:05;;;;;;;7.18;6.50;;;23.10;99.90;;;;;;5053944;28;20279;-86
2022/08/14 09:03:34;;;;;;;5.55;5.15;;;23.20;99.90;;;;;;5053762;28;20214;-85
2022/08/14 09:06:11;;;;;;;7.78;6.22;;;23.40;99.90;;;;;;5053748;28;20201;-86
2022/08/14 09:08:59;;;;;;;6.72;6.15;;;23.50;99.90;;;;;;5053481;28;20202;-86
2022/08/14 09:11:30;;;;;;;5.15;4.68;;;23.70;99.90;;;;;;5053435;28;20230;-86
2022/08/14 09:13:59;;;;;;;5.55;5.05;;;23.80;99.90;;;;;;5053780;28;20281;-86
2022/08/14 09:16:27;;;;;;;5.30;4.90;;;23.80;99.90;;;;;;5054904;28;20268;-86
2022/08/14 09:18:55;;;;;;;5.90;5.40;;;23.90;99.90;;;;;;5052820;28;20300;-86
2022/08/14 09:21:24;;;;;;;5.00;4.70;;;23.90;99.90;;;;;;5053498;28;20238;-87
2022/08/14 09:23:59;;;;;;;7.07;6.07;;;24.10;99.90;;;;;;5053136;28;20204;-86
2022/08/14 09:26:49;;;;;;;6.07;5.57;;;24.20;99.90;;;;;;5053406;28;20213;-86
2022/08/14 09:29:19;;;;;;;6.68;6.00;;;24.40;99.90;;;;;;5053221;28;20205;-86
2022/08/14 09:31:55;;;;;;;6.85;6.15;;;24.40;99.90;;;;;;5052913;28;20257;-86
2022/08/14 09:34:42;;;;;;;5.93;5.43;;;24.50;99.90;;;;;;5053210;28;20201;-86
2022/08/14 09:37:37;;;;;;;5.97;5.47;;;24.50;99.90;;;;;;5053064;28;20228;-86
2022/08/14 09:40:18;;;;;;;8.18;6.45;;;24.70;99.90;;;;;;5052948;28;20208;-86
2022/08/14 09:43:04;;;;;;;5.68;5.25;;;24.90;99.90;;;;;;5053258;28;20217;-87
2022/08/14 09:45:38;;;;;;;5.80;5.30;;;24.90;99.90;;;;;;5053319;28;20219;-86
2022/08/14 09:48:22;;;;;;;6.40;5.90;;;25.00;99.90;;;;;;5052598;28;20225;-86
2022/08/14 09:50:58;;;;;;;7.40;6.50;;;25.20;99.90;;;;;;5052851;28;20241;-87
2022/08/14 09:53:40;;;;;;;5.72;5.13;;;25.10;99.90;;;;;;5052939;28;20200;-86
2022/08/14 09:56:29;;;;;;;6.43;5.93;;;25.00;99.90;;;;;;5053119;28;20202;-86
2022/08/14 09:59:13;;;;;;;5.97;5.47;;;25.10;99.90;;;;;;5052687;28;20205;-86
2022/08/14 10:01:44;;;;;;;7.13;6.53;;;25.10;99.90;;;;;;5053013;28;20246;-87
2022/08/14 10:04:23;;;;;;;6.57;6.05;;;25.10;99.90;;;;;;5052721;28;20209;-87
2022/08/14 10:07:02;;;;;;;6.32;5.45;;;25.00;99.90;;;;;;5052742;28;20209;-86
2022/08/14 10:09:31;;;;;;;6.10;5.60;;;24.90;99.90;;;;;;5052414;28;20269;-86
2022/08/14 10:12:02;;;;;;;6.22;5.57;;;24.90;99.90;;;;;;5052579;28;20226;-86
2022/08/14 10:14:34;;;;;;;6.63;6.10;;;25.00;99.90;;;;;;5053031;28;20216;-86
2022/08/14 10:17:06;;;;;;;6.38;5.85;;;25.20;99.90;;;;;;5052664;28;20216;-86
2022/08/14 10:19:46;;;;;;;8.95;6.38;;;25.30;99.90;;;;;;5052335;28;20209;-86
2022/08/14 10:22:15;;;;;;;6.85;6.25;;;25.40;99.90;;;;;;5052606;28;20296;-87
2022/08/14 10:25:12;;;;;;;7.00;6.43;;;25.60;99.90;;;;;;5052781;28;20206;-86
2022/08/14 10:27:45;;;;;;;6.65;6.05;;;25.80;99.90;;;;;;5052711;28;20206;-87
2022/08/14 10:30:19;;;;;;;6.68;6.07;;;25.90;99.90;;;;;;5052747;28;20209;-87
2022/08/14 10:32:50;;;;;;;6.68;6.18;;;26.00;99.90;;;;;;5056090;28;20253;-86
2022/08/14 10:35:20;;;;;;;5.93;5.40;;;26.20;99.90;;;;;;5056860;28;20206;-86
2022/08/14 10:37:51;;;;;;;8.82;6.05;;;26.40;99.90;;;;;;5056800;28;20209;-86
2022/08/14 10:40:27;;;;;;;6.03;5.40;;;26.50;99.90;;;;;;5056540;28;20225;-86
2022/08/14 10:43:22;;;;;;;6.18;5.57;;;26.40;99.90;;;;;;5056421;28;20206;-87
2022/08/14 10:46:00;;;;;;;7.88;7.13;;;26.30;99.90;;;;;;5056306;28;20209;-87
2022/08/14 10:49:01;;;;;;;5.90;5.28;;;26.20;99.90;;;;;;5055961;28;20202;-86
2022/08/14 10:51:34;;;;;;;7.25;6.22;;;26.10;99.90;;;;;;5056396;28;20257;-86
2022/08/14 10:54:08;;;;;;;6.25;5.68;;;25.90;99.90;;;;;;5056402;28;20205;-87
2022/08/14 10:56:57;;;;;;;6.43;5.93;;;25.90;99.90;;;;;;5055777;28;20201;-86
2022/08/14 10:59:25;;;;;;;5.40;5.00;;;26.00;99.90;;;;;;5055875;28;20284;-86
2022/08/14 11:02:00;;;;;;;6.07;5.57;;;26.10;99.90;;;;;;5056263;28;20228;-86
2022/08/14 11:04:28;;;;;;;5.90;5.43;;;26.10;99.90;;;;;;5055944;28;20216;-86
2022/08/14 11:06:58;;;;;;;6.88;6.28;;;26.10;99.90;;;;;;5056079;28;20384;-87
2022/08/14 11:09:26;;;;;;;13.95;5.88;;;26.10;99.90;;;;;;5055664;28;20305;-87
2022/08/14 11:11:59;;;;;;;5.95;5.45;;;26.10;99.90;;;;;;5055574;28;20307;-87
2022/08/14 11:14:52;;;;;;;6.45;5.95;;;26.30;99.90;;;;;;5055814;28;20198;-87
2022/08/14 11:17:29;;;;;;;5.68;5.18;;;26.50;99.90;;;;;;5055880;28;20236;-86
2022/08/14 11:20:01;;;;;;;6.00;5.50;;;26.60;99.90;;;;;;5056060;28;20216;-86
2022/08/14 11:22:31;;;;;;;6.50;5.72;;;26.70;99.90;;;;;;5055733;28;20249;-87
2022/08/14 11:25:22;;;;;;;6.30;5.70;;;26.90;99.90;;;;;;5055584;28;20217;-87
2022/08/14 11:27:53;;;;;;;6.00;5.50;;;27.20;99.90;;;;;;5055649;28;20210;-87
2022/08/14 11:30:23;;;;;;;6.30;5.13;;;27.30;99.90;;;;;;5055062;28;20208;-87
2022/08/14 11:33:13;;;;;;;6.53;5.90;;;27.50;99.90;;;;;;5055171;28;20222;-86
2022/08/14 11:35:48;;;;;;;4.57;4.18;;;27.50;99.90;;;;;;5056540;28;20280;-86
2022/08/14 11:38:20;;;;;;;5.70;5.30;;;27.40;99.90;;;;;;5055607;28;20292;-86
2022/08/14 11:40:48;;;;;;;5.13;4.80;;;27.40;99.90;;;;;;5055036;28;20222;-86
2022/08/14 11:43:20;;;;;;;6.65;5.47;;;27.30;99.90;;;;;;5055029;28;20205;-86
2022/08/14 11:45:57;;;;;;;5.95;5.45;;;27.30;99.90;;;;;;5055151;28;20287;-86
2022/08/14 11:48:32;;;;;;;6.28;5.68;;;27.30;99.90;;;;;;5054852;28;20209;-86
2022/08/14 11:51:24;;;;;;;5.57;5.18;;;27.40;99.90;;;;;;5055337;28;20230;-86
2022/08/14 11:54:02;;;;;;;6.03;5.45;;;27.70;99.90;;;;;;5055307;28;20241;-86
2022/08/14 11:56:35;;;;;;;6.00;5.45;;;27.80;99.90;;;;;;5054962;28;20216;-86
2022/08/14 11:59:03;;;;;;;4.43;4.13;;;27.90;99.90;;;;;;5062627;28;20302;-87
2022/08/14 12:01:32;;;;;;;5.68;5.20;;;28.00;99.90;;;;;;5071259;28;20297;-86
2022/08/14 12:04:12;;;;;;;6.75;6.15;;;27.80;99.90;;;;;;5060702;28;20209;-86
2022/08/14 12:07:00;;;;;;;8.93;6.03;;;27.50;99.90;;;;;;5054966;28;20229;-87
2022/08/14 12:09:30;;;;;;;8.10;6.38;;;27.50;99.90;;;;;;5054600;28;20206;-87
2022/08/14 12:11:59;;;;;;;5.63;5.13;;;27.30;99.90;;;;;;5054450;28;20308;-86
2022/08/14 12:14:28;;;;;;;5.90;5.50;;;26.90;99.90;;;;;;5054646;28;20229;-86
2022/08/14 12:17:05;;;;;;;6.63;6.00;;;26.80;99.90;;;;;;5055109;28;20209;-87
2022/08/14 12:19:52;;;;;;;5.75;5.18;;;27.00;99.90;;;;;;5054757;28;20207;-87
2022/08/14 12:22:34;;;;;;;6.00;5.50;;;27.60;99.90;;;;;;5054277;28;20233;-87
2022/08/14 12:25:06;;;;;;;6.47;5.88;;;28.50;99.90;;;;;;5054728;28;20265;-87
2022/08/14 12:27:41;;;;;;;4.85;4.32;;;29.40;99.90;;;;;;5054341;28;20215;-88
2022/08/14 12:30:32;;;;;;;6.00;5.40;;;29.60;99.90;;;;;;5054216;28;20209;-88
2022/08/14 12:33:24;;;;;;;5.75;5.32;;;29.90;99.90;;;;;;5054382;28;20225;-88
2022/08/14 12:36:04;;;;;;;5.38;4.88;;;30.10;99.90;;;;;;5054281;28;20229;-88
2022/08/14 12:38:37;;;;;;;6.40;5.40;;;30.30;99.90;;;;;;5053809;28;20206;-88
2022/08/14 12:41:12;;;;;;;5.75;5.18;;;30.50;99.90;;;;;;5053938;28;20233;-88
2022/08/14 12:43:50;;;;;;;9.25;5.57;;;30.90;99.90;;;;;;5054492;28;20202;-88
2022/08/14 12:46:26;;;;;;;4.97;4.57;;;30.70;99.90;;;;;;5054124;28;20231;-89
2022/08/14 12:48:58;;;;;;;5.15;4.63;;;30.80;99.90;;;;;;5053862;28;20236;-88
2022/08/14 12:51:28;;;;;;;5.20;4.80;;;30.00;99.90;;;;;;5053954;28;20222;-89
2022/08/14 12:53:58;;;;;;;5.05;4.65;;;29.40;99.90;;;;;;5053324;28;20319;-89
2022/08/14 12:56:28;;;;;;;5.35;4.95;;;29.30;99.90;;;;;;5053841;28;20277;-89
2022/08/14 12:59:01;;;;;;;9.07;4.85;;;29.00;99.90;;;;;;5053814;28;20210;-89
2022/08/14 13:01:32;;;;;;;8.18;5.30;;;28.90;99.90;;;;;;5053549;28;20233;-88
2022/08/14 13:04:20;;;;;;;5.88;5.28;;;28.90;99.90;;;;;;5053677;28;20198;-89
2022/08/14 13:06:51;;;;;;;5.40;4.97;;;28.90;99.90;;;;;;5053811;28;20210;-89
2022/08/14 13:09:26;;;;;;;5.03;4.60;;;28.60;99.90;;;;;;5053240;28;20227;-88
2022/08/14 13:12:05;;;;;;;5.20;4.80;;;28.90;99.90;;;;;;5053514;28;20312;-88
2022/08/14 13:14:56;;;;;;;4.82;4.43;;;29.20;99.90;;;;;;5053297;28;20225;-88
2022/08/14 13:17:25;;;;;;;5.95;4.80;;;29.20;99.90;;;;;;5054122;28;20284;-88
2022/08/14 13:19:57;;;;;;;5.95;5.25;;;29.30;99.90;;;;;;5053530;28;20236;-88
2022/08/14 13:22:26;;;;;;;5.70;5.20;;;29.30;99.90;;;;;;5053196;28;20233;-88
2022/08/14 13:25:04;;;;;;;4.82;4.43;;;29.40;99.90;;;;;;5053529;28;20255;-88
2022/08/14 13:27:35;;;;;;;6.68;5.00;;;29.20;99.90;;;;;;5053223;28;20289;-88
2022/08/14 13:30:10;;;;;;;7.05;4.72;;;29.40;99.90;;;;;;5053297;28;20212;-86
2022/08/14 13:32:48;;;;;;;4.55;4.25;;;29.60;99.90;;;;;;5053855;28;20252;-86
2022/08/14 13:35:17;;;;;;;5.43;5.03;;;29.40;99.90;;;;;;5053234;28;20221;-87
2022/08/14 13:37:49;;;;;;;4.45;4.15;;;29.20;99.90;;;;;;5053006;28;20280;-87
2022/08/14 13:40:23;;;;;;;5.50;5.00;;;29.10;99.40;;;;;;5053174;28;20284;-87
2022/08/14 13:42:54;;;;;;;4.72;4.32;;;29.20;99.50;;;;;;5052966;28;20209;-87
2022/08/14 13:45:26;;;;;;;5.93;5.38;;;29.20;99.40;;;;;;5053002;28;20208;-88
2022/08/14 13:48:15;;;;;;;5.00;4.63;;;29.40;99.50;;;;;;5052965;28;20224;-87